Terminal Aerodrome Forecast
Issued by NWS

Home | Current Version | Previous Version | Text Only | Print | Product List | Glossary On
Versions: 1 2 3 4 5 6 7 8 9 10 11 12 13 14 15 16
000
FTUS44 KLZK 011700
TAFBPK
TAF
KBPK 011725Z 0118/0218 16008KT P6SM SCT120
     FM020000 15007KT P6SM BKN100
     FM021000 15005KT 6SM BR OVC015 PROB30 0215/0218 4SM -TSRA BR
      BKN005CB=

USA.gov is the U.S. government's official web portal to all federal, state and local government web resources and services.